LMM weather

Valle del Fuerte International Airport
Los Mochis, Sinaloa, Mexico

Public forecast

Using degrees Celsius for public forecast. Weather courtesy of forecast.io.

METAR (pilot weather report)

Report is more than 2 hours old.

Retrieved 2019/04/19 02:42 UTC (6 hours ago):

MMLM 190242Z 31008KT 10SM SCT220 22/12 A2984 RMK SLP105 8/001

TAF (pilot weather forecast)

Retrieved 2019/04/19 06:55 UTC (1 hour ago):

TAF MMLM 190448Z 1906/2006 30005KT P6SM SCT250 FM191800 30012KT P6SM BKN250 FM200200 30005KT P6SM BKN250